Time;durP1;ratioP1;P1;durP2;ratioP2;P2;SDS_P1;SDS_P2;PMS_P1;PMS_P2;Temp;Humidity;BMP_temperature;BMP_pressure;BME280_temperature;BME280_humidity;BME280_pressure;Samples;Min_cycle;Max_cycle;Signal;HPM_P1;HPM_P2
2023/07/01 00:00:06;;;;;;;7.13;5.20;;;;;;;-146.58;100.00;69501.63;5029584;28;20049;-67
2023/07/01 00:02:32;;;;;;;9.95;5.07;;;;;;;-146.58;100.00;69501.63;5032867;28;20029;-68
2023/07/01 00:04:59;;;;;;;10.05;4.78;;;;;;;-146.58;100.00;69501.63;5030296;28;20111;-67
2023/07/01 00:07:24;;;;;;;7.78;3.65;;;;;;;-146.58;100.00;69501.63;5032604;28;20025;-68
2023/07/01 00:09:49;;;;;;;5.03;3.22;;;;;;;-146.58;100.00;69501.63;5030938;28;20041;-67
2023/07/01 00:12:15;;;;;;;6.38;3.72;;;;;;;-146.58;100.00;69501.63;5031947;28;20534;-67
2023/07/01 00:14:40;;;;;;;11.00;3.50;;;;;;;-146.58;100.00;69501.63;5030937;28;20049;-67
2023/07/01 00:17:11;;;;;;;9.98;3.33;;;;;;;-146.58;100.00;69501.63;5032223;28;20048;-68
2023/07/01 00:19:36;;;;;;;7.93;4.25;;;;;;;-146.58;100.00;69501.63;5030695;28;20045;-69
2023/07/01 00:22:02;;;;;;;6.07;3.28;;;;;;;-146.58;100.00;69501.63;5032082;28;20505;-68
2023/07/01 00:24:27;;;;;;;7.13;3.35;;;;;;;-146.58;100.00;69501.63;5031034;28;20411;-67
2023/07/01 00:26:53;;;;;;;7.72;3.63;;;;;;;-146.58;100.00;69501.63;5031509;28;20472;-67
2023/07/01 00:29:18;;;;;;;5.38;4.20;;;;;;;-146.58;100.00;69501.63;5031024;28;20428;-67
2023/07/01 00:31:43;;;;;;;15.82;5.47;;;;;;;-146.58;100.00;69501.63;5031936;28;20091;-67
2023/07/01 00:34:09;;;;;;;15.00;3.72;;;;;;;-146.58;100.00;69501.63;5030087;28;20037;-67
2023/07/01 00:36:34;;;;;;;11.68;4.78;;;;;;;-146.58;100.00;69501.63;5032233;28;20025;-67
2023/07/01 00:38:59;;;;;;;4.22;3.42;;;;;;;-146.58;100.00;69501.63;5030403;28;20117;-66
2023/07/01 00:41:25;;;;;;;9.52;3.30;;;;;;;-146.58;100.00;69501.63;5031456;28;20384;-66
2023/07/01 00:43:50;;;;;;;7.53;3.00;;;;;;;-146.58;100.00;69501.63;5030189;28;20118;-67
2023/07/01 00:46:16;;;;;;;7.82;2.63;;;;;;;-146.58;100.00;69501.63;5031844;28;20030;-67
2023/07/01 00:48:42;;;;;;;7.07;4.13;;;;;;;-146.58;100.00;69501.63;5029237;28;20033;-67
2023/07/01 00:51:08;;;;;;;5.75;3.92;;;;;;;-146.58;100.00;69501.63;5031578;28;20053;-67
2023/07/01 00:53:33;;;;;;;23.02;3.78;;;;;;;-146.58;100.00;69501.63;5028989;28;20129;-67
2023/07/01 00:55:58;;;;;;;5.55;3.30;;;;;;;-146.58;100.00;69501.63;5031138;28;20029;-68
2023/07/01 00:58:24;;;;;;;4.32;3.05;;;;;;;-146.58;100.00;69501.63;5030440;28;20048;-68
2023/07/01 01:00:49;;;;;;;7.18;2.97;;;;;;;-146.58;100.00;69501.63;5031213;28;20036;-67
2023/07/01 01:03:37;;;;;;;5.88;2.85;;;;;;;-146.58;100.00;69501.63;5029372;28;20048;-67
2023/07/01 01:06:10;;;;;;;6.60;2.67;;;;;;;-146.58;100.00;69501.63;5031133;28;20037;-67
2023/07/01 01:09:02;;;;;;;6.60;2.45;;;;;;;-146.58;100.00;69501.63;5029912;28;20056;-67
2023/07/01 01:11:31;;;;;;;5.40;2.47;;;;;;;-146.58;100.00;69501.63;5030446;28;20038;-67
2023/07/01 01:13:59;;;;;;;14.70;4.75;;;;;;;-146.58;100.00;69501.63;5029647;28;20037;-67
2023/07/01 01:16:25;;;;;;;4.60;2.65;;;;;;;-146.58;100.00;69501.63;5031233;28;20396;-67
2023/07/01 01:18:52;;;;;;;12.70;3.78;;;;;;;-146.58;100.00;69501.63;5029040;28;20403;-67
2023/07/01 01:21:18;;;;;;;3.97;2.70;;;;;;;-146.58;100.00;69501.63;5031437;28;20040;-67
2023/07/01 01:23:54;;;;;;;5.57;3.00;;;;;;;-146.58;100.00;69501.63;5029852;28;20116;-67
2023/07/01 01:26:22;;;;;;;4.35;2.70;;;;;;;-146.58;100.00;69501.63;5030942;28;20488;-66
2023/07/01 01:28:48;;;;;;;4.10;2.00;;;;;;;-146.58;100.00;69501.63;5029507;28;20041;-67
2023/07/01 01:31:13;;;;;;;10.25;2.70;;;;;;;-146.58;100.00;69501.63;5030937;28;20017;-67
2023/07/01 01:33:40;;;;;;;16.63;5.22;;;;;;;-146.58;100.00;69501.63;5029281;28;20114;-66
2023/07/01 01:36:27;;;;;;;11.30;2.83;;;;;;;-146.58;100.00;69501.63;5029201;28;20025;-67
2023/07/01 01:38:57;;;;;;;13.07;2.88;;;;;;;-146.58;100.00;69501.63;5029366;28;20041;-66
2023/07/01 01:41:27;;;;;;;11.32;5.65;;;;;;;-146.58;100.00;69501.63;5030344;28;20029;-66
2023/07/01 01:44:11;;;;;;;7.55;3.75;;;;;;;-146.58;100.00;69501.63;5029335;28;20052;-66
2023/07/01 01:46:38;;;;;;;10.35;5.05;;;;;;;-146.58;100.00;69501.63;5030691;28;20522;-65
2023/07/01 01:49:06;;;;;;;5.05;3.13;;;;;;;-146.58;100.00;69501.63;5028615;28;20049;-66
2023/07/01 01:51:33;;;;;;;10.55;5.30;;;;;;;-146.58;100.00;69501.63;5030847;28;20028;-66
2023/07/01 01:54:01;;;;;;;9.10;3.40;;;;;;;-146.58;100.00;69501.63;5029041;28;20092;-66
2023/07/01 01:56:27;;;;;;;10.57;3.50;;;;;;;-146.58;100.00;69501.63;5030261;28;20044;-67
2023/07/01 01:58:53;;;;;;;13.80;4.03;;;;;;;-146.58;100.00;69501.63;5028808;28;20069;-67
2023/07/01 02:01:18;;;;;;;4.20;2.58;;;;;;;-146.58;100.00;69501.63;5030714;28;20021;-69
2023/07/01 02:03:45;;;;;;;9.80;3.63;;;;;;;-146.58;100.00;69501.63;5029060;28;20058;-69
2023/07/01 02:06:10;;;;;;;8.18;3.97;;;;;;;-146.58;100.00;69501.63;5030516;28;20020;-67
2023/07/01 02:08:35;;;;;;;6.50;3.20;;;;;;;-146.58;100.00;69501.63;5029253;28;20041;-67
2023/07/01 02:11:01;;;;;;;16.92;3.17;;;;;;;-146.58;100.00;69501.63;5029950;28;20032;-67
2023/07/01 02:13:26;;;;;;;13.65;3.17;;;;;;;-146.58;100.00;69501.63;5029118;28;20037;-67
2023/07/01 02:15:51;;;;;;;3.95;3.25;;;;;;;-146.58;100.00;69501.63;5030065;28;20499;-67
2023/07/01 02:18:17;;;;;;;11.90;3.78;;;;;;;-146.58;100.00;69501.63;5028658;28;20033;-67
2023/07/01 02:20:42;;;;;;;25.83;5.30;;;;;;;-146.58;100.00;69501.63;5030637;28;20032;-68
2023/07/01 02:23:08;;;;;;;4.55;2.97;;;;;;;-146.58;100.00;69501.63;5028941;28;20045;-68
2023/07/01 02:25:33;;;;;;;11.75;4.40;;;;;;;-146.58;100.00;69501.63;5030271;28;20557;-68
2023/07/01 02:27:58;;;;;;;10.95;3.13;;;;;;;-146.58;100.00;69501.63;5028560;28;20029;-67
2023/07/01 02:30:24;;;;;;;4.65;2.42;;;;;;;-146.58;100.00;69501.63;5030625;28;20029;-67
2023/07/01 02:32:49;;;;;;;5.80;2.33;;;;;;;-146.58;100.00;69501.63;5028418;28;20072;-67
2023/07/01 02:35:14;;;;;;;12.23;4.13;;;;;;;-146.58;100.00;69501.63;5030223;28;20484;-67
2023/07/01 02:37:40;;;;;;;4.15;2.83;;;;;;;-146.58;100.00;69501.63;5030462;28;20026;-68
2023/07/01 02:40:06;;;;;;;7.03;2.40;;;;;;;-146.58;100.00;69501.63;5028529;28;20049;-66
2023/07/01 02:42:31;;;;;;;5.18;2.53;;;;;;;-146.58;100.00;69501.63;5030107;28;20018;-66
2023/07/01 02:44:57;;;;;;;4.85;2.55;;;;;;;-146.58;100.00;69501.63;5028689;28;20115;-66
2023/07/01 02:47:22;;;;;;;9.02;2.72;;;;;;;-146.58;100.00;69501.63;5030022;28;20068;-66
2023/07/01 02:49:49;;;;;;;8.32;2.15;;;;;;;-146.58;100.00;69501.63;5028657;28;20071;-66
2023/07/01 02:52:14;;;;;;;9.45;3.42;;;;;;;-146.58;100.00;69501.63;5030335;28;20033;-66
2023/07/01 02:54:39;;;;;;;8.88;3.67;;;;;;;-146.58;100.00;69501.63;5028429;28;20501;-68
2023/07/01 02:57:07;;;;;;;3.53;2.88;;;;;;;-146.58;100.00;69501.63;5029667;28;20037;-68
2023/07/01 02:59:32;;;;;;;9.73;2.25;;;;;;;-146.58;100.00;69501.63;5028849;28;20034;-69
2023/07/01 03:01:58;;;;;;;4.95;3.95;;;;;;;-146.58;100.00;69501.63;5029715;28;20052;-69
2023/07/01 03:04:23;;;;;;;7.93;2.50;;;;;;;-146.58;100.00;69501.63;5028586;28;20049;-68
2023/07/01 03:06:48;;;;;;;4.47;2.40;;;;;;;-146.58;100.00;69501.63;5029997;28;20515;-68
2023/07/01 03:09:14;;;;;;;4.68;2.65;;;;;;;-146.58;100.00;69501.63;5028135;28;20400;-68
2023/07/01 03:11:40;;;;;;;3.95;2.20;;;;;;;-146.58;100.00;69501.63;5031799;28;20029;-67
2023/07/01 03:14:05;;;;;;;3.55;2.13;;;;;;;-146.58;100.00;69501.63;5030574;28;20049;-68
2023/07/01 03:16:30;;;;;;;9.98;2.63;;;;;;;-146.58;100.00;69501.63;5033308;28;20029;-67
2023/07/01 03:18:57;;;;;;;6.88;2.70;;;;;;;-146.58;100.00;69501.63;5031206;28;20543;-67
2023/07/01 03:21:23;;;;;;;6.30;2.83;;;;;;;-146.58;100.00;69501.63;5033665;28;20021;-67
2023/07/01 03:23:48;;;;;;;9.32;3.30;;;;;;;-146.58;100.00;69501.63;5031583;28;20496;-67
2023/07/01 03:26:13;;;;;;;3.55;1.83;;;;;;;-146.58;100.00;69501.63;5033273;28;20045;-67
2023/07/01 03:28:39;;;;;;;5.15;2.70;;;;;;;-146.58;100.00;69501.63;5031923;28;20037;-68
2023/07/01 03:31:04;;;;;;;4.18;2.50;;;;;;;-146.58;100.00;69501.63;5032696;28;20021;-69
2023/07/01 03:33:29;;;;;;;2.83;2.00;;;;;;;-146.58;100.00;69501.63;5031903;28;20516;-67
2023/07/01 03:35:55;;;;;;;4.60;2.72;;;;;;;-146.58;100.00;69501.63;5033131;28;20423;-67
2023/07/01 03:38:20;;;;;;;9.20;4.63;;;;;;;-146.58;100.00;69501.63;5031036;28;20929;-67
2023/07/01 03:40:47;;;;;;;7.18;3.33;;;;;;;-146.58;100.00;69501.63;5032973;28;20025;-69
2023/07/01 03:43:12;;;;;;;6.35;2.65;;;;;;;-146.58;100.00;69501.63;5031610;28;20035;-70
2023/07/01 03:45:38;;;;;;;3.20;2.75;;;;;;;-146.58;100.00;69501.63;5032194;28;20033;-68
2023/07/01 03:48:03;;;;;;;4.43;3.30;;;;;;;-146.58;100.00;69501.63;5031472;28;20051;-68
2023/07/01 03:50:29;;;;;;;3.67;2.03;;;;;;;-146.58;100.00;69501.63;5033144;28;20384;-69
2023/07/01 03:52:54;;;;;;;3.70;2.08;;;;;;;-146.58;100.00;69501.63;5029458;28;20059;-69
2023/07/01 03:55:19;;;;;;;9.15;2.67;;;;;;;-146.58;100.00;69501.63;5032511;28;20028;-68
2023/07/01 03:57:45;;;;;;;4.20;2.97;;;;;;;-146.58;100.00;69501.63;5032257;28;20660;-68
2023/07/01 04:00:17;;;;;;;23.73;4.47;;;;;;;-146.58;100.00;69501.63;5031095;28;20459;-67
2023/07/01 04:02:49;;;;;;;10.57;3.28;;;;;;;-146.58;100.00;69501.63;5032915;28;20037;-66
2023/07/01 04:05:16;;;;;;;6.07;2.92;;;;;;;-146.58;100.00;69501.63;5031208;28;20497;-68
2023/07/01 04:07:43;;;;;;;4.80;2.63;;;;;;;-146.58;100.00;69501.63;5030752;28;20614;-69
2023/07/01 04:10:10;;;;;;;6.95;3.08;;;;;;;-146.58;100.00;69501.63;5030896;28;20045;-68
2023/07/01 04:12:36;;;;;;;5.38;3.47;;;;;;;-146.58;100.00;69501.63;5032635;28;20112;-68
2023/07/01 04:15:03;;;;;;;6.32;3.25;;;;;;;-146.58;100.00;69501.63;5029584;28;20520;-71
2023/07/01 04:17:29;;;;;;;6.20;3.08;;;;;;;-146.58;100.00;69501.63;5032426;28;20031;-71
2023/07/01 04:19:55;;;;;;;4.75;2.75;;;;;;;-146.58;100.00;69501.63;5030065;28;20132;-73
2023/07/01 04:22:20;;;;;;;8.02;3.50;;;;;;;-146.58;100.00;69501.63;5031035;28;20076;-66
2023/07/01 04:24:46;;;;;;;4.88;2.15;;;;;;;-146.58;100.00;69501.63;5029782;28;20065;-66
2023/07/01 04:27:11;;;;;;;4.38;2.38;;;;;;;-146.58;100.00;69501.63;5032090;28;20053;-66
2023/07/01 04:29:36;;;;;;;6.80;3.65;;;;;;;-146.58;100.00;69501.63;5030365;28;20046;-65
2023/07/01 04:32:02;;;;;;;8.43;2.90;;;;;;;-146.58;100.00;69501.63;5031465;28;20029;-66
2023/07/01 04:34:27;;;;;;;5.50;3.08;;;;;;;-146.58;100.00;69501.63;5030791;28;20128;-66
2023/07/01 04:36:53;;;;;;;10.23;2.47;;;;;;;-146.58;100.00;69501.63;5031296;28;20477;-65
2023/07/01 04:39:20;;;;;;;5.05;2.40;;;;;;;-146.58;100.00;69501.63;5030242;28;20064;-66
2023/07/01 04:41:45;;;;;;;6.07;2.35;;;;;;;-146.58;100.00;69501.63;5032033;28;20018;-66
2023/07/01 04:44:10;;;;;;;6.50;2.72;;;;;;;-146.58;100.00;69501.63;5030132;28;20042;-66
2023/07/01 04:46:36;;;;;;;5.25;2.92;;;;;;;-146.58;100.00;69501.63;5031453;28;20017;-66
2023/07/01 04:49:01;;;;;;;6.53;3.10;;;;;;;-146.58;100.00;69501.63;5029735;28;20048;-66
2023/07/01 04:51:27;;;;;;;4.47;2.28;;;;;;;-146.58;100.00;69501.63;5031536;28;20033;-66
2023/07/01 04:53:52;;;;;;;4.32;3.22;;;;;;;-146.58;100.00;69501.63;5027507;28;20045;-67
2023/07/01 04:56:21;;;;;;;6.53;2.85;;;;;;;-146.58;100.00;69501.63;5025019;28;20080;-66
2023/07/01 04:58:46;;;;;;;4.95;2.78;;;;;;;-146.58;100.00;69501.63;5026245;28;20128;-66
2023/07/01 05:01:12;;;;;;;5.47;2.28;;;;;;;-146.58;100.00;69501.63;5030800;28;20075;-65
2023/07/01 05:03:37;;;;;;;8.85;2.78;;;;;;;-146.58;100.00;69501.63;5027548;28;20496;-66
2023/07/01 05:06:03;;;;;;;12.77;3.83;;;;;;;-146.58;100.00;69501.63;5030028;28;20032;-66
2023/07/01 05:08:28;;;;;;;3.58;2.45;;;;;;;-146.58;100.00;69501.63;5028012;28;20115;-66
2023/07/01 05:10:53;;;;;;;5.38;2.65;;;;;;;-146.58;100.00;69501.63;5029515;28;20022;-67
2023/07/01 05:13:19;;;;;;;22.60;4.28;;;;;;;-146.58;100.00;69501.63;5027952;28;20049;-66
2023/07/01 05:15:44;;;;;;;3.25;2.45;;;;;;;-146.58;100.00;69501.63;5030167;28;20014;-67
2023/07/01 05:18:10;;;;;;;6.75;3.45;;;;;;;-146.58;100.00;69501.63;5027871;28;20040;-68
2023/07/01 05:20:35;;;;;;;3.83;2.80;;;;;;;-146.58;100.00;69501.63;5030887;28;20040;-66
2023/07/01 05:23:01;;;;;;;4.22;2.83;;;;;;;-146.58;100.00;69501.63;5027440;28;20021;-67
2023/07/01 05:25:26;;;;;;;4.47;2.50;;;;;;;-146.58;100.00;69501.63;5028448;28;20056;-67
2023/07/01 05:27:52;;;;;;;3.95;2.83;;;;;;;-146.58;100.00;69501.63;5028674;28;20551;-68
2023/07/01 05:30:17;;;;;;;5.85;3.05;;;;;;;-146.58;100.00;69501.63;5030327;28;20033;-67
2023/07/01 05:32:42;;;;;;;7.65;2.67;;;;;;;-146.58;100.00;69501.63;5029634;28;20026;-69
2023/07/01 05:35:08;;;;;;;4.85;3.03;;;;;;;-146.58;100.00;69501.63;5028466;28;20416;-70
2023/07/01 05:37:34;;;;;;;3.15;2.35;;;;;;;-146.58;100.00;69501.63;5029927;28;20112;-71
2023/07/01 05:39:59;;;;;;;4.38;2.53;;;;;;;-146.58;100.00;69501.63;5025872;28;20554;-69
2023/07/01 05:42:24;;;;;;;7.05;2.97;;;;;;;-146.58;100.00;69501.63;5030187;28;20047;-69
2023/07/01 05:44:50;;;;;;;3.40;3.13;;;;;;;-146.58;100.00;69501.63;5026407;28;20037;-69
2023/07/01 05:47:15;;;;;;;6.15;3.03;;;;;;;-146.58;100.00;69501.63;5029066;28;20029;-70
2023/07/01 05:49:40;;;;;;;6.00;2.28;;;;;;;-146.58;100.00;69501.63;5028758;28;20041;-69
2023/07/01 05:52:06;;;;;;;6.90;2.95;;;;;;;-146.58;100.00;69501.63;5029401;28;20025;-72
2023/07/01 05:54:31;;;;;;;3.75;2.30;;;;;;;-146.58;100.00;69501.63;5027504;28;20041;-69
2023/07/01 05:56:57;;;;;;;4.78;1.92;;;;;;;-146.58;100.00;69501.63;5029884;28;20080;-70
2023/07/01 05:59:22;;;;;;;5.40;2.78;;;;;;;-146.58;100.00;69501.63;5028649;28;20053;-70
2023/07/01 06:01:48;;;;;;;7.63;2.33;;;;;;;-146.58;100.00;69501.63;5029237;28;20025;-71
2023/07/01 06:04:14;;;;;;;4.32;3.03;;;;;;;-146.58;100.00;69501.63;5025431;28;20061;-69
2023/07/01 06:06:39;;;;;;;3.20;2.65;;;;;;;-146.58;100.00;69501.63;5022346;28;20029;-71
2023/07/01 06:09:08;;;;;;;4.18;2.45;;;;;;;-146.58;100.00;69501.63;5027736;28;20064;-69
2023/07/01 06:11:33;;;;;;;;;;;;;;;-146.58;100.00;69501.63;5030444;28;20028;-69
2023/07/01 06:13:58;;;;;;;4.53;2.27;;;;;;;-146.58;100.00;69501.63;5027656;28;19917;-69
2023/07/01 06:16:23;;;;;;;2.95;2.53;;;;;;;-146.58;100.00;69501.63;5029230;28;20464;-68
2023/07/01 06:18:49;;;;;;;10.13;2.50;;;;;;;-146.58;100.00;69501.63;5028507;28;20507;-69
2023/07/01 06:21:14;;;;;;;6.38;2.75;;;;;;;-146.58;100.00;69501.63;5029715;28;20388;-70
2023/07/01 06:23:39;;;;;;;6.80;2.33;;;;;;;-146.58;100.00;69501.63;5027651;28;20040;-66
2023/07/01 06:26:06;;;;;;;2.25;2.00;;;;;;;-146.58;100.00;69501.63;5029414;28;20285;-66
2023/07/01 06:28:32;;;;;;;2.47;2.15;;;;;;;-146.58;100.00;69501.63;5028205;28;20046;-67
2023/07/01 06:30:57;;;;;;;5.95;2.67;;;;;;;-146.58;100.00;69501.63;5028230;28;20040;-67
2023/07/01 06:33:23;;;;;;;3.95;2.80;;;;;;;-146.58;100.00;69501.63;5027561;28;20061;-67
2023/07/01 06:35:48;;;;;;;4.03;2.90;;;;;;;-146.58;100.00;69501.63;5028977;28;20472;-67
2023/07/01 06:38:13;;;;;;;3.47;2.88;;;;;;;-146.58;100.00;69501.63;5027473;28;20389;-67
2023/07/01 06:40:39;;;;;;;6.97;3.33;;;;;;;-146.58;100.00;69501.63;5029301;28;20022;-68
2023/07/01 06:43:04;;;;;;;3.10;2.88;;;;;;;-146.58;100.00;69501.63;5027884;28;20040;-68
2023/07/01 06:45:31;;;;;;;3.58;2.63;;;;;;;-146.58;100.00;69501.63;5029516;28;20075;-68
2023/07/01 06:47:57;;;;;;;4.93;2.70;;;;;;;-146.58;100.00;69501.63;5030472;28;20124;-67
2023/07/01 06:50:22;;;;;;;5.20;3.97;;;;;;;-146.58;100.00;69501.63;5032894;28;20025;-67
2023/07/01 06:52:48;;;;;;;4.50;3.53;;;;;;;-146.58;100.00;69501.63;5032940;28;20542;-68
2023/07/01 06:55:16;;;;;;;3.60;2.65;;;;;;;-146.58;100.00;69501.63;5030317;28;20042;-68
2023/07/01 06:57:41;;;;;;;;;;;;;;;-146.58;100.00;69501.63;5033606;28;20053;-67
2023/07/01 07:00:11;;;;;;;3.67;2.50;;;;;;;-146.58;100.00;69501.63;5030117;28;20351;-67
2023/07/01 07:02:37;;;;;;;3.20;2.95;;;;;;;-146.58;100.00;69501.63;5032266;28;20060;-67
2023/07/01 07:05:06;;;;;;;4.80;3.70;;;;;;;-146.58;100.00;69501.63;5031569;28;20065;-66
2023/07/01 07:07:32;;;;;;;3.42;2.53;;;;;;;-146.58;100.00;69501.63;5023191;28;20101;-68
2023/07/01 07:09:57;;;;;;;11.50;2.88;;;;;;;-146.58;100.00;69501.63;5029434;28;20129;-68
2023/07/01 07:12:22;;;;;;;3.55;3.25;;;;;;;-146.58;100.00;69501.63;5032831;28;20515;-67
2023/07/01 07:14:48;;;;;;;9.23;3.67;;;;;;;-146.58;100.00;69501.63;5030788;28;20037;-67
2023/07/01 07:17:13;;;;;;;4.68;2.80;;;;;;;-146.58;100.00;69501.63;5031592;28;20082;-66
2023/07/01 07:19:38;;;;;;;2.58;2.38;;;;;;;-146.58;100.00;69501.63;5030318;28;20041;-68
2023/07/01 07:22:05;;;;;;;3.38;3.13;;;;;;;-146.58;100.00;69501.63;5032566;28;20659;-67
2023/07/01 07:24:30;;;;;;;3.05;2.80;;;;;;;-146.58;100.00;69501.63;5031601;28;20045;-68
2023/07/01 07:26:59;;;;;;;2.70;2.50;;;;;;;-146.58;100.00;69501.63;5031956;28;20029;-67
2023/07/01 07:29:24;;;;;;;5.20;3.83;;;;;;;-146.58;100.00;69501.63;5030987;28;20549;-68
2023/07/01 07:31:50;;;;;;;2.80;2.60;;;;;;;-146.58;100.00;69501.63;5032157;28;20025;-68
2023/07/01 07:34:15;;;;;;;3.30;3.10;;;;;;;-146.58;100.00;69501.63;5026410;28;20053;-67
2023/07/01 07:36:42;;;;;;;4.40;2.80;;;;;;;-146.58;100.00;69501.63;5032080;28;20032;-67
2023/07/01 07:39:09;;;;;;;12.00;3.80;;;;;;;-146.58;100.00;69501.63;5031077;28;20045;-68
2023/07/01 07:41:34;;;;;;;12.80;3.40;;;;;;;-146.58;100.00;69501.63;5032647;28;20481;-67
2023/07/01 07:43:59;;;;;;;3.67;3.38;;;;;;;-146.58;100.00;69501.63;5030640;28;20057;-68
2023/07/01 07:46:25;;;;;;;4.85;3.55;;;;;;;-146.58;100.00;69501.63;5032476;28;20334;-67
2023/07/01 07:48:50;;;;;;;11.05;5.15;;;;;;;-146.58;100.00;69501.63;5030711;28;20056;-67
2023/07/01 07:51:15;;;;;;;3.58;3.22;;;;;;;-146.58;100.00;69501.63;5032164;28;20033;-68
2023/07/01 07:53:41;;;;;;;3.95;3.55;;;;;;;-146.58;100.00;69501.63;5031071;28;20041;-67
2023/07/01 07:56:07;;;;;;;3.58;2.90;;;;;;;-146.58;100.00;69501.63;5031949;28;20021;-68
2023/07/01 07:58:32;;;;;;;4.97;3.33;;;;;;;-146.58;100.00;69501.63;5029667;28;20479;-68
2023/07/01 08:00:57;;;;;;;5.07;3.58;;;;;;;-146.58;100.00;69501.63;5031248;28;20018;-67
2023/07/01 08:03:23;;;;;;;4.75;3.05;;;;;;;-146.58;100.00;69501.63;5030541;28;20049;-68
2023/07/01 08:05:49;;;;;;;4.03;3.58;;;;;;;-146.58;100.00;69501.63;5032070;28;20022;-68
2023/07/01 08:08:15;;;;;;;3.08;2.88;;;;;;;-146.58;100.00;69501.63;5030838;28;20033;-67
2023/07/01 08:10:45;;;;;;;9.43;2.88;;;;;;;-146.58;100.00;69501.63;5032068;28;20021;-68
2023/07/01 08:13:11;;;;;;;2.70;2.50;;;;;;;-146.58;100.00;69501.63;5029915;28;20053;-68
2023/07/01 08:15:36;;;;;;;3.40;3.20;;;;;;;-146.58;100.00;69501.63;5032161;28;20108;-67
2023/07/01 08:18:02;;;;;;;4.90;2.55;;;;;;;-146.58;100.00;69501.63;5030512;28;20021;-67
2023/07/01 08:20:27;;;;;;;4.63;3.13;;;;;;;-146.58;100.00;69501.63;5031838;28;20047;-68
2023/07/01 08:22:53;;;;;;;6.50;3.22;;;;;;;-146.58;100.00;69501.63;5030446;28;20025;-67
2023/07/01 08:25:18;;;;;;;6.88;3.17;;;;;;;-146.58;100.00;69501.63;5031519;28;20014;-68
2023/07/01 08:27:43;;;;;;;3.47;2.75;;;;;;;-146.58;100.00;69501.63;5031302;28;20489;-67
2023/07/01 08:30:09;;;;;;;4.00;3.00;;;;;;;-146.58;100.00;69501.63;5030156;28;20045;-67
2023/07/01 08:32:35;;;;;;;3.17;2.97;;;;;;;-146.58;100.00;69501.63;5031649;28;20024;-67
2023/07/01 08:35:00;;;;;;;2.92;2.72;;;;;;;-146.58;100.00;69501.63;5029696;28;20045;-67
2023/07/01 08:37:25;;;;;;;3.15;2.95;;;;;;;-146.58;100.00;69501.63;5031642;28;20048;-68
2023/07/01 08:39:51;;;;;;;3.28;2.90;;;;;;;-146.58;100.00;69501.63;5028742;28;20072;-67
2023/07/01 08:42:22;;;;;;;3.42;2.70;;;;;;;-146.58;100.00;69501.63;5031317;28;20068;-67
2023/07/01 08:44:50;;;;;;;3.35;3.15;;;;;;;-146.58;100.00;69501.63;5030197;28;20504;-66
2023/07/01 08:47:17;;;;;;;5.15;3.92;;;;;;;-146.58;100.00;69501.63;5030458;28;20033;-67
2023/07/01 08:49:47;;;;;;;10.80;4.03;;;;;;;-146.58;100.00;69501.63;5029188;28;20053;-67
2023/07/01 08:52:14;;;;;;;6.10;3.78;;;;;;;-146.58;100.00;69501.63;5030389;28;20491;-67
2023/07/01 08:54:40;;;;;;;3.70;3.22;;;;;;;-146.58;100.00;69501.63;5029952;28;20044;-68
2023/07/01 08:57:08;;;;;;;3.80;3.33;;;;;;;-146.58;100.00;69501.63;5030336;28;20037;-68
2023/07/01 08:59:34;;;;;;;3.28;2.97;;;;;;;-146.58;100.00;69501.63;5029304;28;20541;-67
2023/07/01 09:02:01;;;;;;;4.40;2.97;;;;;;;-146.58;100.00;69501.63;5030103;28;20033;-60
2023/07/01 09:04:27;;;;;;;3.80;3.47;;;;;;;-146.58;100.00;69501.63;5028178;28;20052;-60
2023/07/01 09:06:52;;;;;;;3.60;3.10;;;;;;;-146.58;100.00;69501.63;5029775;28;20029;-60
2023/07/01 09:09:18;;;;;;;3.47;2.78;;;;;;;-146.58;100.00;69501.63;5028381;28;20408;-60
2023/07/01 09:11:43;;;;;;;3.85;3.53;;;;;;;-146.58;100.00;69501.63;5030334;28;20500;-60
2023/07/01 09:14:09;;;;;;;5.03;3.45;;;;;;;-146.58;100.00;69501.63;5029079;28;20041;-60
2023/07/01 09:16:36;;;;;;;6.25;4.20;;;;;;;-146.58;100.00;69501.63;5030633;28;20022;-60
2023/07/01 09:19:16;;;;;;;3.63;3.40;;;;;;;-146.58;100.00;69501.63;5024826;28;20048;-60
2023/07/01 09:21:42;;;;;;;4.25;3.83;;;;;;;-146.58;100.00;69501.63;5024028;28;20075;-60
2023/07/01 09:24:10;;;;;;;5.20;4.80;;;;;;;-146.58;100.00;69501.63;5027009;28;20404;-60
2023/07/01 09:26:35;;;;;;;13.77;5.93;;;;;;;-146.58;100.00;69501.63;5020713;28;20048;-60
2023/07/01 09:29:09;;;;;;;6.72;6.03;;;;;;;-146.58;100.00;69501.63;5029189;28;20502;-60
2023/07/01 09:31:48;;;;;;;7.70;5.53;;;;;;;-146.58;100.00;69501.63;5029308;28;20417;-60
2023/07/01 09:34:16;;;;;;;5.43;4.93;;;;;;;-146.58;100.00;69501.63;5029145;28;20029;-61
2023/07/01 09:36:42;;;;;;;7.28;5.47;;;;;;;-146.58;100.00;69501.63;5030305;28;20097;-60
2023/07/01 09:39:08;;;;;;;4.60;4.30;;;;;;;-146.58;100.00;69501.63;5029053;28;20212;-60
2023/07/01 09:41:34;;;;;;;6.22;5.72;;;;;;;-146.58;100.00;69501.63;5030298;28;20032;-60
2023/07/01 09:44:00;;;;;;;7.30;5.00;;;;;;;-146.58;100.00;69501.63;5028939;28;20042;-60
2023/07/01 09:46:46;;;;;;;5.30;4.25;;;;;;;-146.58;100.00;69501.63;5030421;28;20021;-60
2023/07/01 09:49:11;;;;;;;5.50;4.95;;;;;;;-146.58;100.00;69501.63;5027220;28;20041;-60
2023/07/01 09:51:51;;;;;;;5.53;4.43;;;;;;;-146.58;100.00;69501.63;5017677;28;20040;-61
2023/07/01 09:54:24;;;;;;;5.22;4.72;;;;;;;-146.58;100.00;69501.63;5028752;28;20061;-61
2023/07/01 09:56:50;;;;;;;5.72;5.22;;;;;;;-146.58;100.00;69501.63;5028906;28;20072;-60
2023/07/01 09:59:16;;;;;;;3.75;3.45;;;;;;;-146.58;100.00;69501.63;5028316;28;20041;-60
2023/07/01 10:01:41;;;;;;;5.00;4.68;;;;;;;-146.58;100.00;69501.63;5030019;28;20040;-60
2023/07/01 10:04:06;;;;;;;3.80;3.50;;;;;;;-146.58;100.00;69501.63;5027466;28;20053;-60
2023/07/01 10:06:32;;;;;;;4.18;3.88;;;;;;;-146.58;100.00;69501.63;5030147;28;20025;-61
2023/07/01 10:08:57;;;;;;;3.42;3.10;;;;;;;-146.58;100.00;69501.63;5028407;28;20042;-61
2023/07/01 10:11:25;;;;;;;4.13;3.75;;;;;;;-146.58;100.00;69501.63;5029195;28;20028;-60
2023/07/01 10:13:52;;;;;;;4.10;3.80;;;;;;;-146.58;100.00;69501.63;5027001;28;20416;-60
2023/07/01 10:16:19;;;;;;;3.92;3.63;;;;;;;-146.58;100.00;69501.63;5030347;28;20029;-60
2023/07/01 10:18:44;;;;;;;5.40;3.78;;;;;;;-146.58;100.00;69501.63;5027649;28;20566;-60
2023/07/01 10:21:31;;;;;;;3.88;3.58;;;;;;;-146.58;100.00;69501.63;5032671;28;20021;-61
2023/07/01 10:23:59;;;;;;;4.97;4.53;;;;;;;-146.58;100.00;69501.63;5032329;28;20041;-60
2023/07/01 10:26:47;;;;;;;9.05;4.85;;;;;;;-146.58;100.00;69501.63;5034057;28;20028;-60
2023/07/01 10:29:28;;;;;;;4.18;3.88;;;;;;;-146.58;100.00;69501.63;5032087;28;20045;-61
2023/07/01 10:32:08;;;;;;;4.75;4.35;;;;;;;-146.58;100.00;69501.63;5033747;28;20032;-61
2023/07/01 10:35:03;;;;;;;4.60;4.30;;;;;;;-146.58;100.00;69501.63;5032334;28;20041;-61
2023/07/01 10:37:31;;;;;;;4.85;4.47;;;;;;;-146.58;100.00;69501.63;5023483;28;20626;-61
2023/07/01 10:39:58;;;;;;;5.60;5.20;;;;;;;-146.58;100.00;69501.63;5031087;28;20052;-61
2023/07/01 10:42:31;;;;;;;5.82;5.32;;;;;;;-146.58;100.00;69501.63;5024777;28;20033;-61
2023/07/01 10:45:11;;;;;;;6.32;5.68;;;;;;;-146.58;100.00;69501.63;5023953;28;20080;-61
2023/07/01 10:47:47;;;;;;;5.32;4.38;;;;;;;-146.58;100.00;69501.63;5013599;28;20025;-61
2023/07/01 10:50:14;;;;;;;4.82;4.40;;;;;;;-146.58;100.00;69501.63;5024298;28;20056;-61
2023/07/01 10:53:03;;;;;;;5.22;4.82;;;;;;;-146.58;100.00;69501.63;5032211;28;20120;-61
2023/07/01 10:55:44;;;;;;;6.43;5.75;;;;;;;-146.58;100.00;69501.63;5007931;28;20124;-61
2023/07/01 10:58:21;;;;;;;7.15;6.38;;;;;;;-146.58;100.00;69501.63;5011879;28;20028;-61
2023/07/01 11:00:48;;;;;;;5.95;5.45;;;;;;;-146.58;100.00;69501.63;4994268;28;20047;-61
2023/07/01 11:03:32;;;;;;;6.15;5.65;;;;;;;-146.58;100.00;69501.63;4993767;28;20505;-61
2023/07/01 11:05:58;;;;;;;6.85;6.30;;;;;;;-146.58;100.00;69501.63;5013727;28;20030;-61
2023/07/01 11:08:25;;;;;;;8.65;7.88;;;;;;;-146.58;100.00;69501.63;5011999;28;20072;-61